createdAt,value
2022-10-25T00:02:20.774Z,16.95
2022-10-25T00:05:09.678Z,16.94
2022-10-25T00:07:56.939Z,16.92
2022-10-25T00:10:44.220Z,16.91
2022-10-25T00:13:32.879Z,16.90
2022-10-25T00:16:23.878Z,16.88
2022-10-25T00:19:11.970Z,16.87
2022-10-25T00:21:59.738Z,16.87
2022-10-25T00:24:47.400Z,16.85
2022-10-25T00:27:35.438Z,16.83
2022-10-25T00:30:24.546Z,16.82
2022-10-25T00:33:12.124Z,16.81
2022-10-25T00:36:05.649Z,16.81
2022-10-25T00:38:54.424Z,16.78
2022-10-25T00:41:41.736Z,16.78
2022-10-25T00:44:52.801Z,16.77
2022-10-25T00:47:53.575Z,16.76
2022-10-25T00:50:51.727Z,16.73
2022-10-25T00:53:39.857Z,16.73
2022-10-25T00:56:31.726Z,16.72
2022-10-25T00:59:23.732Z,16.72
2022-10-25T01:02:12.197Z,16.69
2022-10-25T01:05:01.426Z,16.69
2022-10-25T01:07:49.110Z,16.68
2022-10-25T01:10:36.855Z,16.67
2022-10-25T01:13:24.435Z,16.66
2022-10-25T01:16:25.620Z,16.66
2022-10-25T01:19:44.312Z,16.64
2022-10-25T01:22:40.059Z,16.63
2022-10-25T01:26:11.339Z,16.62
2022-10-25T01:29:34.580Z,16.61
2022-10-25T01:32:30.893Z,16.59
2022-10-25T01:35:30.335Z,16.58
2022-10-25T01:38:34.731Z,16.56
2022-10-25T01:41:29.664Z,16.55
2022-10-25T01:44:34.241Z,16.54
2022-10-25T01:47:26.960Z,16.54
2022-10-25T01:50:19.022Z,16.53
2022-10-25T01:53:06.731Z,16.52
2022-10-25T01:55:58.172Z,16.50
2022-10-25T01:58:59.076Z,16.50
2022-10-25T02:02:05.174Z,16.50
2022-10-25T02:05:05.255Z,16.48
2022-10-25T02:08:01.723Z,16.47
2022-10-25T02:10:59.286Z,16.47
2022-10-25T02:14:01.081Z,16.46
2022-10-25T02:16:52.751Z,16.44
2022-10-25T02:19:45.688Z,16.43
2022-10-25T02:22:36.312Z,16.42
2022-10-25T02:25:24.364Z,16.43
2022-10-25T02:28:15.335Z,16.42
2022-10-25T02:31:03.691Z,16.41
2022-10-25T02:33:51.527Z,16.40
2022-10-25T02:36:39.346Z,16.39
2022-10-25T02:39:31.707Z,16.38
2022-10-25T02:42:19.371Z,16.38
2022-10-25T02:45:08.099Z,16.38
2022-10-25T02:47:55.622Z,16.38
2022-10-25T02:50:42.961Z,16.36
2022-10-25T02:53:30.242Z,16.36
2022-10-25T02:56:22.214Z,16.35
2022-10-25T02:59:12.241Z,16.35
2022-10-25T03:01:59.892Z,16.34
2022-10-25T03:04:47.160Z,16.34
2022-10-25T03:07:34.529Z,16.35
2022-10-25T03:10:21.925Z,16.35
2022-10-25T03:13:10.717Z,16.34
2022-10-25T03:15:58.519Z,16.38
2022-10-25T03:18:45.836Z,16.37
2022-10-25T03:21:33.335Z,16.38
2022-10-25T03:24:20.681Z,16.38
2022-10-25T03:27:11.192Z,16.40
2022-10-25T03:30:00.010Z,16.39
2022-10-25T03:32:47.454Z,16.39
2022-10-25T03:35:34.925Z,16.38
2022-10-25T03:38:23.413Z,16.36
2022-10-25T03:41:10.916Z,16.36
2022-10-25T03:43:58.220Z,16.36
2022-10-25T03:46:46.890Z,16.35
2022-10-25T03:49:34.644Z,16.34
2022-10-25T03:52:22.010Z,16.34
2022-10-25T03:55:10.666Z,16.30
2022-10-25T03:57:58.362Z,16.31
2022-10-25T04:00:45.689Z,16.30
2022-10-25T04:03:34.466Z,16.28
2022-10-25T04:06:22.128Z,16.28
2022-10-25T04:09:09.582Z,16.26
2022-10-25T04:11:57.331Z,16.25
2022-10-25T04:14:44.802Z,16.24
2022-10-25T04:17:32.142Z,16.23
2022-10-25T04:20:21.867Z,16.22
2022-10-25T04:23:09.589Z,16.22
2022-10-25T04:25:57.269Z,16.22
2022-10-25T04:28:44.885Z,16.21
2022-10-25T04:31:33.464Z,16.21
2022-10-25T04:34:21.268Z,16.21
2022-10-25T04:37:09.998Z,16.20
2022-10-25T04:39:57.624Z,16.19
2022-10-25T04:42:45.283Z,16.19
2022-10-25T04:45:33.089Z,16.19
2022-10-25T04:48:21.044Z,16.18
2022-10-25T04:51:09.121Z,16.18
2022-10-25T04:53:57.971Z,16.17
2022-10-25T04:56:45.617Z,16.18
2022-10-25T04:59:33.065Z,16.18
2022-10-25T05:02:20.655Z,16.18
2022-10-25T05:05:09.131Z,16.19
2022-10-25T05:07:56.325Z,16.17
2022-10-25T05:10:45.099Z,16.17
2022-10-25T05:13:35.779Z,16.17
2022-10-25T05:16:26.045Z,16.16
2022-10-25T05:19:15.587Z,16.16
2022-10-25T05:22:04.038Z,16.15
2022-10-25T05:24:51.498Z,16.15
2022-10-25T05:27:41.017Z,16.14
2022-10-25T05:30:28.570Z,16.16
2022-10-25T05:33:16.001Z,16.16
2022-10-25T05:36:05.105Z,16.16
2022-10-25T05:38:53.046Z,16.15
2022-10-25T05:41:40.345Z,16.14
2022-10-25T05:44:29.233Z,16.14
2022-10-25T05:47:16.872Z,16.14
2022-10-25T05:50:04.765Z,16.12
2022-10-25T05:52:53.326Z,16.13
2022-10-25T05:55:47.089Z,16.13
2022-10-25T05:58:34.590Z,16.12
2022-10-25T06:01:26.338Z,16.12
2022-10-25T06:04:15.355Z,16.11
2022-10-25T06:07:02.618Z,16.12
2022-10-25T06:09:49.933Z,16.12
2022-10-25T06:12:37.379Z,16.12
2022-10-25T06:15:24.774Z,16.13
2022-10-25T06:18:13.537Z,16.14
2022-10-25T06:21:04.168Z,16.13
2022-10-25T06:23:52.096Z,16.14
2022-10-25T06:26:39.487Z,16.15
2022-10-25T06:29:26.976Z,16.15
2022-10-25T06:32:14.265Z,16.15
2022-10-25T06:35:02.996Z,16.15
2022-10-25T06:37:50.788Z,16.15
2022-10-25T06:40:40.798Z,16.17
2022-10-25T06:43:28.638Z,16.16
2022-10-25T06:46:22.819Z,16.15
2022-10-25T06:49:11.811Z,16.17
2022-10-25T06:52:00.720Z,16.17
2022-10-25T06:54:48.600Z,16.18
2022-10-25T06:57:36.345Z,16.18
2022-10-25T07:00:23.953Z,16.20
2022-10-25T07:03:11.547Z,16.21
2022-10-25T07:06:01.613Z,16.24
2022-10-25T07:08:56.032Z,16.26
2022-10-25T07:11:45.834Z,16.29
2022-10-25T07:14:33.229Z,16.33
2022-10-25T07:17:20.759Z,16.38
2022-10-25T07:20:09.679Z,16.45
2022-10-25T07:23:00.141Z,16.49
2022-10-25T07:25:53.526Z,16.56
2022-10-25T07:28:42.273Z,16.63
2022-10-25T07:31:34.129Z,16.67
2022-10-25T07:34:21.776Z,16.74
2022-10-25T07:37:09.126Z,16.81
2022-10-25T07:39:58.504Z,16.87
2022-10-25T07:42:51.198Z,16.94
2022-10-25T07:45:40.288Z,16.97
2022-10-25T07:48:28.459Z,17.02
2022-10-25T07:51:18.441Z,17.09
2022-10-25T07:54:06.334Z,17.17
2022-10-25T07:56:54.054Z,17.25
2022-10-25T07:59:42.674Z,17.41
2022-10-25T08:02:30.179Z,17.55
2022-10-25T08:05:19.596Z,17.68
2022-10-25T08:08:10.619Z,17.81
2022-10-25T08:10:59.680Z,17.89
2022-10-25T08:13:51.551Z,17.99
2022-10-25T08:16:40.523Z,18.06
2022-10-25T08:19:28.109Z,18.10
2022-10-25T08:22:15.828Z,18.12
2022-10-25T08:25:06.318Z,18.20
2022-10-25T08:27:53.853Z,18.34
2022-10-25T08:30:42.303Z,18.54
2022-10-25T08:33:31.555Z,18.73
2022-10-25T08:36:19.215Z,18.90
2022-10-25T08:39:06.735Z,19.03
2022-10-25T08:41:57.207Z,19.11
2022-10-25T08:44:52.200Z,19.18
2022-10-25T08:47:45.016Z,19.24
2022-10-25T08:50:46.874Z,19.28
2022-10-25T08:53:45.411Z,19.31
2022-10-25T08:56:42.583Z,19.36
2022-10-25T08:59:44.068Z,19.42
2022-10-25T09:02:47.285Z,19.46
2022-10-25T09:05:41.655Z,19.60
2022-10-25T09:08:48.310Z,19.83
2022-10-25T09:11:58.831Z,20.13
2022-10-25T09:14:52.707Z,20.44
2022-10-25T09:17:50.094Z,20.77
2022-10-25T09:20:49.255Z,21.10
2022-10-25T09:23:36.722Z,21.43
2022-10-25T09:26:35.931Z,21.76
2022-10-25T09:29:30.968Z,22.04
2022-10-25T09:32:25.484Z,22.32
2022-10-25T09:35:18.640Z,22.52
2022-10-25T09:38:19.349Z,22.64
2022-10-25T09:41:12.894Z,22.62
2022-10-25T09:44:06.819Z,22.50
2022-10-25T09:46:58.965Z,22.34
2022-10-25T09:49:56.143Z,22.17
2022-10-25T09:52:56.188Z,21.95
2022-10-25T09:55:54.010Z,21.76
2022-10-25T09:58:45.071Z,21.60
2022-10-25T10:01:41.071Z,21.51
2022-10-25T10:04:36.430Z,21.49
2022-10-25T10:07:30.897Z,21.49
2022-10-25T10:10:21.197Z,21.41
2022-10-25T10:13:19.414Z,21.37
2022-10-25T10:16:17.400Z,21.37
2022-10-25T10:19:18.472Z,21.39
2022-10-25T10:22:13.473Z,21.46
2022-10-25T10:25:05.953Z,21.54
2022-10-25T10:27:59.327Z,21.64
2022-10-25T10:30:56.378Z,21.71
2022-10-25T10:33:50.237Z,21.73
2022-10-25T10:36:40.279Z,21.72
2022-10-25T10:39:27.688Z,21.65
2022-10-25T10:42:18.449Z,21.55
2022-10-25T10:45:18.186Z,21.42
2022-10-25T10:48:07.412Z,21.28
2022-10-25T10:50:55.219Z,21.17
2022-10-25T10:53:42.792Z,21.07
2022-10-25T10:56:31.943Z,20.98
2022-10-25T10:59:52.757Z,20.90
2022-10-25T11:02:43.157Z,20.80
2022-10-25T11:05:35.212Z,20.72
2022-10-25T11:08:23.027Z,20.63
2022-10-25T11:11:20.262Z,20.55
2022-10-25T11:14:14.172Z,20.44
2022-10-25T11:17:10.141Z,20.37
2022-10-25T11:20:18.360Z,20.26
2022-10-25T11:23:14.816Z,20.17
2022-10-25T11:26:11.144Z,20.08
2022-10-25T11:29:13.575Z,19.99
2022-10-25T11:32:14.299Z,19.93
2022-10-25T11:35:19.238Z,19.86
2022-10-25T11:38:17.614Z,19.78
2022-10-25T11:41:22.331Z,19.72
2022-10-25T11:44:46.602Z,19.64
2022-10-25T11:47:44.352Z,19.59
2022-10-25T11:50:44.371Z,19.53
2022-10-25T11:54:10.845Z,19.48
2022-10-25T11:57:13.930Z,19.43
2022-10-25T12:00:09.890Z,19.39
2022-10-25T12:03:20.401Z,19.35
2022-10-25T12:06:20.562Z,19.31
2022-10-25T12:09:25.035Z,19.28
2022-10-25T12:12:17.839Z,19.25
2022-10-25T12:15:13.239Z,19.22
2022-10-25T12:18:02.108Z,19.19
2022-10-25T12:20:51.335Z,19.15
2022-10-25T12:23:45.305Z,19.13
2022-10-25T12:26:39.207Z,19.10
2022-10-25T12:29:36.108Z,19.05
2022-10-25T12:32:28.877Z,19.02
2022-10-25T12:35:23.792Z,18.99
2022-10-25T12:38:20.918Z,18.97
2022-10-25T12:41:17.305Z,18.95
2022-10-25T12:44:32.214Z,18.93
2022-10-25T12:47:40.995Z,18.92
2022-10-25T12:51:05.808Z,18.90
2022-10-25T12:54:28.471Z,18.90
2022-10-25T12:57:27.602Z,18.87
2022-10-25T13:03:44.573Z,18.88
2022-10-25T13:06:37.099Z,18.87
2022-10-25T13:09:31.567Z,18.87
2022-10-25T13:12:30.476Z,18.86
2022-10-25T13:15:20.822Z,18.85
2022-10-25T13:18:27.577Z,18.84
2022-10-25T13:21:16.671Z,18.83
2022-10-25T13:24:04.583Z,18.81
2022-10-25T13:27:21.907Z,18.82
2022-10-25T13:30:31.947Z,18.82
2022-10-25T13:33:33.838Z,18.80
2022-10-25T13:36:51.717Z,18.80
2022-10-25T13:39:44.877Z,18.80
2022-10-25T13:42:35.649Z,18.79
2022-10-25T13:45:33.418Z,18.78
2022-10-25T13:48:31.178Z,18.77
2022-10-25T13:51:21.403Z,18.78
2022-10-25T13:54:13.614Z,18.69
2022-10-25T13:57:03.883Z,18.77
2022-10-25T14:00:03.103Z,18.75
2022-10-25T14:03:37.095Z,18.75
2022-10-25T14:06:30.335Z,18.72
2022-10-25T14:09:29.202Z,18.73
2022-10-25T14:12:20.430Z,18.72
2022-10-25T14:15:24.051Z,18.71
2022-10-25T14:18:20.655Z,18.71
2022-10-25T14:21:12.692Z,18.70
2022-10-25T14:24:03.248Z,18.69
2022-10-25T14:26:57.097Z,18.67
2022-10-25T14:29:44.729Z,18.66
2022-10-25T14:32:32.091Z,18.65
2022-10-25T14:35:20.032Z,18.63
2022-10-25T14:38:18.089Z,18.61
2022-10-25T14:41:13.516Z,18.62
2022-10-25T14:44:02.303Z,18.61
2022-10-25T14:46:49.799Z,18.59
2022-10-25T14:49:38.499Z,18.59
2022-10-25T14:52:27.393Z,18.56
2022-10-25T14:55:25.383Z,18.57
2022-10-25T14:58:14.153Z,18.55
2022-10-25T15:01:05.053Z,18.54
2022-10-25T15:03:57.229Z,18.53
2022-10-25T15:06:44.900Z,18.52
2022-10-25T15:09:49.257Z,18.52
2022-10-25T15:12:38.013Z,18.50
2022-10-25T15:15:36.199Z,18.48
2022-10-25T15:18:36.044Z,18.48
2022-10-25T15:21:23.524Z,18.45
2022-10-25T15:24:17.754Z,18.43
2022-10-25T15:27:06.803Z,18.41
2022-10-25T15:29:56.005Z,18.38
2022-10-25T15:32:43.564Z,18.35
2022-10-25T15:35:33.637Z,18.32
2022-10-25T15:38:21.662Z,18.27
2022-10-25T15:41:10.693Z,18.23
2022-10-25T15:44:00.080Z,18.21
2022-10-25T15:46:50.350Z,18.18
2022-10-25T15:49:38.116Z,18.14
2022-10-25T15:52:25.960Z,18.09
2022-10-25T15:55:21.161Z,18.07
2022-10-25T15:58:10.660Z,18.05
2022-10-25T16:00:58.348Z,18.02
2022-10-25T16:03:47.100Z,17.98
2022-10-25T16:06:34.698Z,17.97
2022-10-25T16:09:22.110Z,17.95
2022-10-25T16:12:15.066Z,17.93
2022-10-25T16:15:02.630Z,17.90
2022-10-25T16:17:50.069Z,17.88
2022-10-25T16:20:39.184Z,17.86
2022-10-25T16:23:27.521Z,17.83
2022-10-25T16:26:24.944Z,17.81
2022-10-25T16:29:17.643Z,17.77
2022-10-25T16:32:05.630Z,17.75
2022-10-25T16:34:53.283Z,17.73
2022-10-25T16:37:42.275Z,17.70
2022-10-25T16:40:29.950Z,17.66
2022-10-25T16:43:17.774Z,17.65
2022-10-25T16:46:05.286Z,17.63
2022-10-25T16:48:54.192Z,17.61
2022-10-25T16:51:44.996Z,17.59
2022-10-25T16:54:33.914Z,17.58
2022-10-25T16:57:21.748Z,17.57
2022-10-25T17:00:11.173Z,17.57
2022-10-25T17:02:58.766Z,17.56
2022-10-25T17:05:48.684Z,17.55
2022-10-25T17:08:36.000Z,17.55
2022-10-25T17:11:24.948Z,17.54
2022-10-25T17:14:14.374Z,17.55
2022-10-25T17:17:03.270Z,17.54
2022-10-25T17:19:50.988Z,17.55
2022-10-25T17:22:38.615Z,17.55
2022-10-25T17:25:26.104Z,17.55
2022-10-25T17:28:17.596Z,17.55
2022-10-25T17:31:12.402Z,17.55
2022-10-25T17:34:03.730Z,17.55
2022-10-25T17:39:47.548Z,17.53
2022-10-25T17:42:45.784Z,17.54
2022-10-25T17:45:40.712Z,17.54
2022-10-25T17:48:33.357Z,17.53
2022-10-25T17:51:25.290Z,17.53
2022-10-25T17:54:22.296Z,17.53
2022-10-25T17:57:14.034Z,17.51
2022-10-25T18:00:07.793Z,17.51
2022-10-25T18:03:04.251Z,17.50
2022-10-25T18:05:51.572Z,17.49
2022-10-25T18:08:39.159Z,17.48
2022-10-25T18:11:28.791Z,17.48
2022-10-25T18:14:16.559Z,17.46
2022-10-25T18:17:04.487Z,17.43
2022-10-25T18:19:53.465Z,17.43
2022-10-25T18:22:41.174Z,17.40
2022-10-25T18:25:28.567Z,17.39
2022-10-25T18:28:16.073Z,17.35
2022-10-25T18:31:07.932Z,17.35
2022-10-25T18:33:56.886Z,17.32
2022-10-25T18:36:46.031Z,17.30
2022-10-25T18:39:36.073Z,17.28
2022-10-25T18:42:24.477Z,17.26
2022-10-25T18:45:13.324Z,17.18
2022-10-25T18:48:00.736Z,17.22
2022-10-25T18:50:48.131Z,17.19
2022-10-25T18:53:39.456Z,17.18
2022-10-25T18:56:27.834Z,17.14
2022-10-25T18:59:17.856Z,17.13
2022-10-25T19:02:05.464Z,17.11
2022-10-25T19:04:53.430Z,17.09
2022-10-25T19:07:40.886Z,17.08
2022-10-25T19:10:29.881Z,17.07
2022-10-25T19:13:19.597Z,17.04
2022-10-25T19:16:07.869Z,17.03
2022-10-25T19:19:02.086Z,17.01
2022-10-25T19:21:49.850Z,16.99
2022-10-25T19:24:38.475Z,16.97
2022-10-25T19:27:29.116Z,16.94
2022-10-25T19:30:16.670Z,16.94
2022-10-25T19:33:04.184Z,16.93
2022-10-25T19:35:52.031Z,16.91
2022-10-25T19:38:40.449Z,16.88
2022-10-25T19:41:28.073Z,16.87
2022-10-25T19:44:17.977Z,16.87
2022-10-25T19:47:05.984Z,16.84
2022-10-25T19:49:53.415Z,16.83
2022-10-25T19:52:41.096Z,16.82
2022-10-25T19:55:28.770Z,16.79
2022-10-25T19:58:16.092Z,16.78
2022-10-25T20:01:11.498Z,16.77
2022-10-25T20:04:01.491Z,16.75
2022-10-25T20:06:49.024Z,16.74
2022-10-25T20:09:36.401Z,16.72
2022-10-25T20:12:23.927Z,16.70
2022-10-25T20:15:16.517Z,16.69
2022-10-25T20:18:06.246Z,16.67
2022-10-25T20:21:03.014Z,16.66
2022-10-25T20:23:57.183Z,16.66
2022-10-25T20:26:50.019Z,16.63
2022-10-25T20:29:37.423Z,16.62
2022-10-25T20:32:24.838Z,16.62
2022-10-25T20:35:13.816Z,16.61
2022-10-25T20:38:01.286Z,16.61
2022-10-25T20:40:48.572Z,16.58
2022-10-25T20:43:36.652Z,16.57
2022-10-25T20:46:26.199Z,16.56
2022-10-25T20:49:13.521Z,16.55
2022-10-25T20:52:02.328Z,16.53
2022-10-25T20:54:50.184Z,16.52
2022-10-25T20:57:40.618Z,16.49
2022-10-25T21:00:27.930Z,16.51
2022-10-25T21:03:16.599Z,16.50
2022-10-25T21:06:06.792Z,16.46
2022-10-25T21:08:55.570Z,16.46
2022-10-25T21:11:43.295Z,16.45
2022-10-25T21:14:30.705Z,16.44
2022-10-25T21:17:18.258Z,16.43
2022-10-25T21:20:06.752Z,16.41
2022-10-25T21:22:54.192Z,16.40
2022-10-25T21:25:43.045Z,16.39
2022-10-25T21:28:35.998Z,16.38
2022-10-25T21:31:23.400Z,16.36
2022-10-25T21:34:11.071Z,16.35
2022-10-25T21:36:59.012Z,16.33
2022-10-25T21:39:48.019Z,16.31
2022-10-25T21:42:37.319Z,16.31
2022-10-25T21:45:24.885Z,16.30
2022-10-25T21:48:12.310Z,16.29
2022-10-25T21:50:59.869Z,16.26
2022-10-25T21:53:47.781Z,16.26
2022-10-25T21:56:35.153Z,16.24
2022-10-25T21:59:26.203Z,16.22
2022-10-25T22:02:16.885Z,16.23
2022-10-25T22:05:04.966Z,16.20
2022-10-25T22:07:54.539Z,16.19
2022-10-25T22:10:41.962Z,16.16
2022-10-25T22:13:29.652Z,16.17
2022-10-25T22:16:20.783Z,16.15
2022-10-25T22:19:14.732Z,16.13
2022-10-25T22:22:02.146Z,16.14
2022-10-25T22:24:49.521Z,16.11
2022-10-25T22:27:39.459Z,16.11
2022-10-25T22:30:27.121Z,16.09
2022-10-25T22:33:16.008Z,16.08
2022-10-25T22:38:57.705Z,16.06
2022-10-25T22:41:46.247Z,16.06
2022-10-25T22:44:35.979Z,16.04
2022-10-25T22:47:23.292Z,16.04
2022-10-25T22:50:12.506Z,16.03
2022-10-25T22:52:59.971Z,16.01
2022-10-25T22:55:59.576Z,16.00
2022-10-25T22:58:51.049Z,15.98
2022-10-25T23:01:39.945Z,15.97
2022-10-25T23:04:27.530Z,15.96
2022-10-25T23:07:17.488Z,15.94
2022-10-25T23:10:05.691Z,15.93
2022-10-25T23:12:52.973Z,15.92
2022-10-25T23:15:40.632Z,15.90
2022-10-25T23:18:28.275Z,15.89
2022-10-25T23:21:18.979Z,15.88
2022-10-25T23:24:08.369Z,15.87
2022-10-25T23:26:55.711Z,15.85
2022-10-25T23:29:43.143Z,15.84
2022-10-25T23:32:30.613Z,15.83
2022-10-25T23:35:18.017Z,15.82
2022-10-25T23:38:05.454Z,15.80
2022-10-25T23:40:54.148Z,15.79
2022-10-25T23:43:42.366Z,15.78
2022-10-25T23:46:29.800Z,15.76
2022-10-25T23:49:17.595Z,15.76
2022-10-25T23:52:05.101Z,15.75
2022-10-25T23:54:52.554Z,15.73
2022-10-25T23:57:41.281Z,15.71
